Time;durP1;ratioP1;P1;durP2;ratioP2;P2;SDS_P1;SDS_P2;PMS_P1;PMS_P2;Temp;Humidity;BMP_temperature;BMP_pressure;BME280_temperature;BME280_humidity;BME280_pressure;Samples;Min_cycle;Max_cycle;Signal;HPM_P1;HPM_P2
2023/04/28 00:02:00;;;;;;;;;;;;;;;15.24;42.78;100207.00;4980909;28;7161;-81
2023/04/28 00:04:26;;;;;;;;;;;;;;;15.23;42.68;100200.97;4980432;28;8912;-81
2023/04/28 00:06:52;;;;;;;;;;;;;;;15.23;43.01;100195.81;4977290;28;6780;-79
2023/04/28 00:09:18;;;;;;;;;;;;;;;15.24;42.73;100192.41;4978980;28;6772;-81
2023/04/28 00:11:45;;;;;;;;;;;;;;;15.23;42.68;100188.06;4975191;28;7094;-81
2023/04/28 00:14:12;;;;;;;;;;;;;;;15.20;43.26;100189.69;4977443;28;6816;-79
2023/04/28 00:16:37;;;;;;;;;;;;;;;15.19;43.22;100185.38;5014850;28;8409;-81
2023/04/28 00:19:03;;;;;;;;;;;;;;;15.17;44.01;100181.88;4998742;28;6784;-81
2023/04/28 00:21:29;;;;;;;;;;;;;;;15.13;43.57;100171.47;4997319;28;7865;-78
2023/04/28 00:23:55;;;;;;;;;;;;;;;15.08;43.65;100175.66;4974015;28;8307;-79
2023/04/28 00:26:20;;;;;;;;;;;;;;;15.01;44.37;100173.72;4961077;28;8761;-82
2023/04/28 00:28:46;;;;;;;;;;;;;;;14.97;44.62;100177.09;4971485;28;7345;-81
2023/04/28 00:31:15;;;;;;;;;;;;;;;14.92;45.60;100169.22;4957134;28;6968;-82
2023/04/28 00:33:43;;;;;;;;;;;;;;;14.92;45.58;100161.47;4987137;28;8509;-82
2023/04/28 00:36:10;;;;;;;;;;;;;;;14.93;45.79;100170.06;4980245;28;8519;-78
2023/04/28 00:38:37;;;;;;;;;;;;;;;14.94;45.89;100161.50;4980592;28;6799;-80
2023/04/28 00:41:03;;;;;;;;;;;;;;;14.94;45.40;100164.97;4977532;28;6792;-81
2023/04/28 00:43:28;;;;;;;;;;;;;;;14.94;46.16;100156.34;4982548;28;6979;-81
2023/04/28 00:45:54;;;;;;;;;;;;;;;14.95;46.31;100158.06;4980331;28;6956;-82
2023/04/28 00:48:21;;;;;;;;;;;;;;;14.94;45.71;100151.19;4979815;28;6946;-80
2023/04/28 00:50:47;;;;;;;;;;;;;;;14.93;45.91;100150.31;4980992;28;6784;-79
2023/04/28 00:53:13;;;;;;;;;;;;;;;14.92;46.01;100150.25;4984764;28;7246;-81
2023/04/28 00:55:39;;;;;;;;;;;;;;;14.88;46.11;100154.47;5014740;28;7183;-82
2023/04/28 00:58:06;;;;;;;;;;;;;;;14.84;45.94;100150.06;4964077;28;8459;-81
2023/04/28 01:00:32;;;;;;;;;;;;;;;14.83;46.76;100158.66;4981085;28;6808;-83
2023/04/28 01:02:58;;;;;;;;;;;;;;;14.81;47.00;100150.84;4974510;28;6953;-81
2023/04/28 01:05:28;;;;;;;;;;;;;;;14.82;47.11;100152.59;4996963;28;7055;-82
2023/04/28 01:07:53;;;;;;;;;;;;;;;14.83;47.63;100148.34;4977323;28;6780;-82
2023/04/28 01:10:20;;;;;;;;;;;;;;;14.84;47.49;100150.94;5012956;28;6944;-82
2023/04/28 01:12:46;;;;;;;;;;;;;;;14.86;47.67;100149.25;4975192;28;6804;-83
2023/04/28 01:15:17;;;;;;;;;;;;;;;14.88;47.60;100141.56;5007692;28;8697;-79
2023/04/28 01:17:46;;;;;;;;;;;;;;;14.92;47.63;100150.25;4974610;28;6828;-83
2023/04/28 01:20:13;;;;;;;;;;;;;;;14.94;47.59;100146.91;4975541;28;7042;-81
2023/04/28 01:22:39;;;;;;;;;;;;;;;14.96;48.01;100141.75;4971029;28;7315;-82
2023/04/28 01:25:05;;;;;;;;;;;;;;;14.95;47.86;100132.28;4972549;28;6784;-82
2023/04/28 01:27:30;;;;;;;;;;;;;;;14.93;48.17;100133.94;5001462;28;6803;-82
2023/04/28 01:29:57;;;;;;;;;;;;;;;14.90;47.88;100133.88;4965545;28;7277;-83
2023/04/28 01:32:23;;;;;;;;;;;;;;;14.86;48.28;100131.19;4979156;28;6896;-80
2023/04/28 01:34:48;;;;;;;;;;;;;;;14.86;48.78;100125.19;4991281;28;7270;-82
2023/04/28 01:37:14;;;;;;;;;;;;;;;14.84;48.40;100127.72;4968446;28;6947;-81
2023/04/28 01:39:40;;;;;;;;;;;;;;;14.78;48.77;100122.41;4965419;28;6853;-83
2023/04/28 01:42:06;;;;;;;;;;;;;;;14.73;49.17;100116.25;4960544;28;6823;-76
2023/04/28 01:44:31;;;;;;;;;;;;;;;14.72;49.63;100122.19;4961191;28;8459;-79
2023/04/28 01:46:57;;;;;;;;;;;;;;;14.71;49.55;100113.56;4948446;28;7222;-81
2023/04/28 01:49:23;;;;;;;;;;;;;;;14.75;50.02;100114.56;5001903;28;8842;-81
2023/04/28 01:51:48;;;;;;;;;;;;;;;14.77;49.59;100115.47;4973748;28;6840;-81
2023/04/28 01:54:14;;;;;;;;;;;;;;;14.79;49.81;100116.41;4978557;28;8555;-82
2023/04/28 01:56:40;;;;;;;;;;;;;;;14.79;49.87;100106.09;4970627;28;8681;-80
2023/04/28 01:59:05;;;;;;;;;;;;;;;14.78;50.20;100100.88;4964167;28;7780;-82
2023/04/28 02:01:31;;;;;;;;;;;;;;;14.76;50.51;100110.28;4968136;28;6958;-82
2023/04/28 02:03:57;;;;;;;;;;;;;;;14.74;50.03;100115.41;4974082;28;7265;-81
2023/04/28 02:06:22;;;;;;;;;;;;;;;14.73;49.95;100105.94;4960289;28;6805;-83
2023/04/28 02:08:48;;;;;;;;;;;;;;;14.74;49.89;100102.50;4964684;28;7871;-78
2023/04/28 02:11:13;;;;;;;;;;;;;;;14.73;49.69;100100.75;4966115;28;7327;-82
2023/04/28 02:13:39;;;;;;;;;;;;;;;14.74;50.43;100097.34;4961450;28;6780;-81
2023/04/28 02:16:05;;;;;;;;;;;;;;;14.75;50.25;100104.25;4962319;28;6776;-77
2023/04/28 02:18:31;;;;;;;;;;;;;;;14.78;50.73;100093.16;4963219;28;6959;-81
2023/04/28 02:20:57;;;;;;;;;;;;;;;14.80;50.73;100084.63;4963402;28;7908;-83
2023/04/28 02:23:22;;;;;;;;;;;;;;;14.82;50.44;100088.09;4969415;28;6799;-82
2023/04/28 02:25:48;;;;;;;;;;;;;;;14.86;50.22;100092.50;4973479;28;6885;-82
2023/04/28 02:28:14;;;;;;;;;;;;;;;14.91;50.35;100095.19;4982859;28;6844;-81
2023/04/28 02:30:39;;;;;;;;;;;;;;;14.96;50.62;100093.63;4999072;28;6780;-75
2023/04/28 02:33:05;;;;;;;;;;;;;;;15.00;50.56;100099.72;4973338;28;7052;-77
2023/04/28 02:35:31;;;;;;;;;;;;;;;15.05;51.03;100098.13;4981627;28;6784;-76
2023/04/28 02:37:56;;;;;;;;;;;;;;;15.09;50.83;100093.91;4953577;28;7153;-75
2023/04/28 02:40:22;;;;;;;;;;;;;;;15.11;50.15;100093.13;4964420;28;7014;-75
2023/04/28 02:42:48;;;;;;;;;;;;;;;15.14;50.62;100100.06;4952474;28;7176;-73
2023/04/28 02:45:13;;;;;;;;;;;;;;;15.17;50.36;100101.88;4982485;28;8832;-75
2023/04/28 02:47:39;;;;;;;;;;;;;;;15.22;50.94;100102.84;4973836;28;6996;-73
2023/04/28 02:50:06;;;;;;;;;;;;;;;15.26;50.80;100096.94;4994761;28;8492;-76
2023/04/28 02:52:31;;;;;;;;;;;;;;;15.28;50.97;100090.09;4950637;28;6988;-73
2023/04/28 02:54:57;;;;;;;;;;;;;;;15.28;51.27;100095.25;4969056;28;7334;-75
2023/04/28 02:57:23;;;;;;;;;;;;;;;15.24;50.75;100085.66;4994795;28;6966;-74
2023/04/28 02:59:49;;;;;;;;;;;;;;;15.21;51.21;100083.03;4989474;28;6868;-75
2023/04/28 03:02:15;;;;;;;;;;;;;;;15.15;51.52;100076.00;4978419;28;7129;-77
2023/04/28 03:04:40;;;;;;;;;;;;;;;15.12;51.67;100081.97;4950911;28;7667;-75
2023/04/28 03:07:06;;;;;;;;;;;;;;;15.11;51.54;100076.75;4953340;28;9984;-77
2023/04/28 03:09:32;;;;;;;;;;;;;;;15.08;52.26;100071.53;4957628;28;6832;-76
2023/04/28 03:11:58;;;;;;;;;;;;;;;15.06;52.20;100048.25;4989809;28;8980;-76
2023/04/28 03:14:23;;;;;;;;;;;;;;;15.04;52.81;100052.50;4960551;28;7317;-78
2023/04/28 03:16:49;;;;;;;;;;;;;;;15.00;53.03;100042.97;4963967;28;7272;-78
2023/04/28 03:19:15;;;;;;;;;;;;;;;15.00;52.81;100040.38;4985874;28;7013;-77
2023/04/28 03:21:41;;;;;;;;;;;;;;;14.99;52.97;100031.75;4952542;28;7285;-76
2023/04/28 03:24:06;;;;;;;;;;;;;;;15.00;53.49;100033.50;4958150;28;6953;-77
2023/04/28 03:26:32;;;;;;;;;;;;;;;15.01;52.90;100018.88;5002584;28;6783;-74
2023/04/28 03:28:58;;;;;;;;;;;;;;;15.02;53.28;99994.81;4976215;28;6855;-74
2023/04/28 03:31:24;;;;;;;;;;;;;;;15.04;53.09;99976.81;4975435;28;6776;-74
2023/04/28 03:33:49;;;;;;;;;;;;;;;15.04;53.54;99969.91;4970640;28;7151;-77
2023/04/28 03:36:15;;;;;;;;;;;;;;;15.05;53.33;99969.09;4982322;28;7403;-74
2023/04/28 03:38:41;;;;;;;;;;;;;;;15.06;53.51;99975.97;4979655;28;6967;-77
2023/04/28 03:41:06;;;;;;;;;;;;;;;15.07;53.10;99980.34;4975465;28;6768;-75
2023/04/28 03:43:34;;;;;;;;;;;;;;;15.07;53.39;99972.59;4981830;28;7176;-77
2023/04/28 03:46:00;;;;;;;;;;;;;;;15.08;53.18;99987.25;4974109;28;6993;-74
2023/04/28 03:48:26;;;;;;;;;;;;;;;15.09;53.95;100019.06;5011715;28;6788;-73
2023/04/28 03:50:51;;;;;;;;;;;;;;;15.11;53.41;100015.69;4978465;28;6915;-74
2023/04/28 03:53:17;;;;;;;;;;;;;;;15.16;53.63;100013.22;4974736;28;7621;-75
2023/04/28 03:55:43;;;;;;;;;;;;;;;15.18;53.63;99998.63;4998260;28;6947;-77
2023/04/28 03:58:09;;;;;;;;;;;;;;;15.22;53.84;99989.25;4979944;28;7015;-74
2023/04/28 04:00:35;;;;;;;;;;;;;;;15.23;54.21;99998.72;4988916;28;6783;-75
2023/04/28 04:03:00;;;;;;;;;;;;;;;15.24;53.91;100003.94;5004964;28;6836;-77
2023/04/28 04:05:26;;;;;;;;;;;;;;;15.25;53.84;100004.78;5004251;28;7122;-74
2023/04/28 04:07:52;;;;;;;;;;;;;;;15.26;53.76;100010.00;4993861;28;7259;-77
2023/04/28 04:10:17;;;;;;;;;;;;;;;15.28;53.44;100004.88;4981146;28;6787;-78
2023/04/28 04:12:43;;;;;;;;;;;;;;;15.30;53.72;100000.63;4962254;28;7250;-74
2023/04/28 04:15:09;;;;;;;;;;;;;;;15.33;54.25;100010.16;4974204;28;6792;-76
2023/04/28 04:17:35;;;;;;;;;;;;;;;15.34;53.82;100004.16;4977831;28;6843;-76
2023/04/28 04:20:01;;;;;;;;;;;;;;;15.36;53.79;100011.09;4989647;28;6991;-74
2023/04/28 04:22:26;;;;;;;;;;;;;;;15.38;53.65;100006.84;4973671;28;6779;-74
2023/04/28 04:24:52;;;;;;;;;;;;;;;15.38;53.86;100009.41;4975722;28;6950;-76
2023/04/28 04:27:18;;;;;;;;;;;;;;;15.41;53.54;99999.13;4980831;28;6768;-77
2023/04/28 04:29:43;;;;;;;;;;;;;;;15.44;53.56;100002.63;4976994;28;7597;-74
2023/04/28 04:32:09;;;;;;;;;;;;;;;15.45;54.11;100009.53;4981329;28;6963;-74
2023/04/28 04:34:35;;;;;;;;;;;;;;;15.47;53.73;100006.16;4975464;28;7636;-75
2023/04/28 04:37:01;;;;;;;;;;;;;;;15.49;53.69;100006.19;4990262;28;7749;-78
2023/04/28 04:39:26;;;;;;;;;;;;;;;15.48;54.40;100007.03;4976301;28;7005;-74
2023/04/28 04:41:52;;;;;;;;;;;;;;;15.44;54.09;99988.00;4975056;28;6805;-74
2023/04/28 04:44:18;;;;;;;;;;;;;;;15.39;54.38;99995.66;4983897;28;7226;-75
2023/04/28 04:46:43;;;;;;;;;;;;;;;15.33;54.32;99995.50;4981123;28;7179;-74
2023/04/28 04:49:09;;;;;;;;;;;;;;;15.30;54.69;99998.03;4986308;28;7817;-78
2023/04/28 04:51:35;;;;;;;;;;;;;;;15.25;54.55;99994.47;4982009;28;6772;-73
2023/04/28 04:54:00;;;;;;;;;;;;;;;15.22;54.66;99991.81;4980716;28;6852;-78
2023/04/28 04:56:26;;;;;;;;;;;;;;;15.18;54.84;99990.03;4984502;28;6772;-73
2023/04/28 04:58:51;;;;;;;;;;;;;;;15.15;54.60;99993.41;4973669;28;7263;-74
2023/04/28 05:01:17;;;;;;;;;;;;;;;15.13;54.79;99988.19;4964235;28;7646;-74
2023/04/28 05:03:43;;;;;;;;;;;;;;;15.14;55.37;99994.25;4979387;28;7746;-75
2023/04/28 05:06:08;;;;;;;;;;;;;;;15.13;55.29;99993.34;4979772;28;6926;-73
2023/04/28 05:08:34;;;;;;;;;;;;;;;15.13;55.56;99998.53;4977717;28;6776;-74
2023/04/28 05:11:00;;;;;;;;;;;;;;;15.15;55.34;99990.81;4982915;28;6950;-73
2023/04/28 05:13:25;;;;;;;;;;;;;;;15.16;55.67;99984.81;4975587;28;6954;-77
2023/04/28 05:15:51;;;;;;;;;;;;;;;15.12;55.52;99986.47;4975423;28;6950;-78
2023/04/28 05:18:16;;;;;;;;;;;;;;;15.10;55.94;99977.81;4993957;28;7000;-76
2023/04/28 05:20:42;;;;;;;;;;;;;;;15.09;55.70;99982.94;4992527;28;6940;-74
2023/04/28 05:23:08;;;;;;;;;;;;;;;15.05;55.88;99979.41;4980816;28;6964;-76
2023/04/28 05:25:33;;;;;;;;;;;;;;;15.04;55.68;99977.66;4967161;28;7838;-76
2023/04/28 05:28:03;;;;;;;;;;;;;;;15.03;56.57;99975.06;5017628;28;7004;-75
2023/04/28 05:30:29;;;;;;;;;;;;;;;15.05;55.71;99969.09;4982490;28;6804;-82
2023/04/28 05:32:55;;;;;;;;;;;;;;;15.07;56.13;99962.28;4996376;28;6971;-82
2023/04/28 05:35:21;;;;;;;;;;;;;;;15.11;55.68;99963.19;4980751;28;7215;-82
2023/04/28 05:37:47;;;;;;;;;;;;;;;15.13;56.12;99957.22;4961438;28;7253;-76
2023/04/28 05:40:13;;;;;;;;;;;;;;;15.17;55.89;99968.50;4992354;28;6976;-78
2023/04/28 05:42:39;;;;;;;;;;;;;;;15.23;56.66;99980.66;4981502;28;6780;-78
2023/04/28 05:45:05;;;;;;;;;;;;;;;15.25;56.09;99969.53;4977707;28;6800;-76
2023/04/28 05:47:31;;;;;;;;;;;;;;;15.28;56.33;99974.75;5011461;28;6804;-81
2023/04/28 05:49:57;;;;;;;;;;;;;;;15.32;56.26;99986.03;4991931;28;8533;-81
2023/04/28 05:52:22;;;;;;;;;;;;;;;15.36;55.92;99985.28;4984867;28;7098;-77
2023/04/28 05:54:48;;;;;;;;;;;;;;;15.40;56.19;99988.78;4977584;28;6955;-79
2023/04/28 05:57:14;;;;;;;;;;;;;;;15.41;55.59;99981.06;5015892;28;6775;-80
2023/04/28 05:59:39;;;;;;;;;;;;;;;15.43;55.85;99982.81;4965974;28;7144;-81
2023/04/28 06:02:05;;;;;;;;;;;;;;;15.46;56.33;99973.41;4963404;28;7234;-81
2023/04/28 06:04:31;;;;;;;;;;;;;;;15.50;56.19;99982.09;4974629;28;6984;-81
2023/04/28 06:06:57;;;;;;;;;;;;;;;15.54;55.93;99989.06;4981410;28;6788;-82
2023/04/28 06:09:23;;;;;;;;;;;;;;;15.59;56.38;99981.41;4981730;28;8405;-81
2023/04/28 06:11:49;;;;;;;;;;;;;;;15.64;56.37;99984.97;5008188;28;6976;-80
2023/04/28 06:14:15;;;;;;;;;;;;;;;15.68;55.72;99976.44;4993022;28;6877;-81
2023/04/28 06:16:41;;;;;;;;;;;;;;;15.75;55.88;99987.78;4988103;28;8142;-77
2023/04/28 06:19:06;;;;;;;;;;;;;;;15.80;56.08;99994.78;4979152;28;8593;-82
2023/04/28 06:21:32;;;;;;;;;;;;;;;15.85;56.39;99989.72;4965331;28;6962;-81
2023/04/28 06:23:58;;;;;;;;;;;;;;;15.93;55.97;99988.19;4956460;28;6950;-83
2023/04/28 06:26:23;;;;;;;;;;;;;;;16.01;56.13;99979.69;4976215;28;7071;-80
2023/04/28 06:28:49;;;;;;;;;;;;;;;16.09;56.26;99980.72;4980156;28;6824;-81
2023/04/28 06:31:15;;;;;;;;;;;;;;;16.15;56.27;99978.25;4978783;28;7655;-82
2023/04/28 06:33:41;;;;;;;;;;;;;;;16.23;56.15;99975.78;4993817;28;7033;-79
2023/04/28 06:36:07;;;;;;;;;;;;;;;16.31;56.02;99994.91;4978268;28;7341;-78
2023/04/28 06:38:33;;;;;;;;;;;;;;;16.38;55.80;99985.53;4978992;28;7024;-79
2023/04/28 06:40:58;;;;;;;;;;;;;;;16.45;55.92;99989.09;4991058;28;6799;-79
2023/04/28 06:43:24;;;;;;;;;;;;;;;16.55;55.83;99995.31;4997937;28;6983;-78
2023/04/28 06:45:50;;;;;;;;;;;;;;;16.61;55.76;100000.56;4979048;28;7221;-80
2023/04/28 06:48:16;;;;;;;;;;;;;;;16.67;55.59;99998.09;4957991;28;6953;-79
2023/04/28 06:50:41;;;;;;;;;;;;;;;16.70;55.12;99998.13;4990939;28;8282;-76
2023/04/28 06:53:07;;;;;;;;;;;;;;;16.71;55.34;99992.16;4994535;28;6954;-79
2023/04/28 06:55:33;;;;;;;;;;;;;;;16.74;55.35;99999.94;4977697;28;8565;-76
2023/04/28 06:57:59;;;;;;;;;;;;;;;16.79;55.50;99998.28;5000160;28;6860;-79
2023/04/28 07:00:25;;;;;;;;;;;;;;;16.86;55.85;99994.09;5006695;28;7900;-78
2023/04/28 07:02:50;;;;;;;;;;;;;;;16.96;55.75;99995.09;4974122;28;7893;-78
2023/04/28 07:05:16;;;;;;;;;;;;;;;17.07;55.74;99990.97;4991391;28;6965;-78
2023/04/28 07:07:42;;;;;;;;;;;;;;;17.17;55.78;99985.94;4955014;28;10095;-79
2023/04/28 07:10:08;;;;;;;;;;;;;;;17.31;55.63;99975.78;4976669;28;7418;-75
2023/04/28 07:12:33;;;;;;;;;;;;;;;17.48;55.87;99968.25;4956700;28;7029;-80
2023/04/28 07:14:59;;;;;;;;;;;;;;;17.68;55.34;99959.84;5003532;28;7993;-79
2023/04/28 07:17:25;;;;;;;;;;;;;;;17.91;55.94;99978.22;5004912;28;6792;-77
2023/04/28 07:19:50;;;;;;;;;;;;;;;18.16;55.60;99974.22;4970291;28;8004;-77
2023/04/28 07:22:16;;;;;;;;;;;;;;;18.37;54.87;99972.69;4968621;28;7459;-75
2023/04/28 07:24:43;;;;;;;;;;;;;;;18.51;55.25;99969.34;4985291;28;8119;-76
2023/04/28 07:27:09;;;;;;;;;;;;;;;18.66;54.45;99968.59;4971344;28;7217;-78
2023/04/28 07:29:34;;;;;;;;;;;;;;;18.84;54.66;99968.72;4974666;28;7217;-80
2023/04/28 07:32:01;;;;;;;;;;;;;;;19.08;54.79;99968.91;5001952;28;7184;-76
2023/04/28 07:34:27;;;;;;;;;;;;;;;19.36;54.74;99961.28;4955130;28;7441;-76
2023/04/28 07:36:53;;;;;;;;;;;;;;;19.56;54.28;99962.22;4984329;28;7310;-79
2023/04/28 07:39:19;;;;;;;;;;;;;;;19.74;53.95;99962.28;4969197;28;8027;-78
2023/04/28 07:41:44;;;;;;;;;;;;;;;19.88;53.28;99965.81;4979992;28;7083;-80
2023/04/28 07:44:10;;;;;;;;;;;;;;;19.99;53.14;99955.47;4991416;28;7929;-79
2023/04/28 07:46:36;;;;;;;;;;;;;;;20.11;52.93;99963.28;4970424;28;7369;-78
2023/04/28 07:49:03;;;;;;;;;;;;;;;20.21;52.14;99958.09;4971610;28;6966;-78
2023/04/28 07:51:30;;;;;;;;;;;;;;;20.24;52.48;99958.09;4952416;28;8196;-80
2023/04/28 07:53:56;;;;;;;;;;;;;;;20.24;52.36;99969.38;4978517;28;7227;-78
2023/04/28 07:56:22;;;;;;;;;;;;;;;20.19;52.14;99960.69;4972636;28;7038;-78
2023/04/28 07:58:48;;;;;;;;;;;;;;;20.10;52.19;99964.16;4975937;28;7220;-75
2023/04/28 08:01:13;;;;;;;;;;;;;;;19.95;52.46;99958.91;4974472;28;7756;-75
2023/04/28 08:03:39;;;;;;;;;;;;;;;19.77;53.02;99967.50;4972692;28;7645;-75
2023/04/28 08:06:06;;;;;;;;;;;;;;;19.55;53.26;99965.69;5004019;28;7730;-75
2023/04/28 08:08:32;;;;;;;;;;;;;;;19.38;53.80;99965.63;4989998;28;7324;-75
2023/04/28 08:10:58;;;;;;;;;;;;;;;19.25;54.25;99969.00;4992865;28;7958;-76
2023/04/28 08:13:23;;;;;;;;;;;;;;;19.16;54.68;99967.22;5001037;28;7429;-75
2023/04/28 08:15:49;;;;;;;;;;;;;;;19.13;54.72;99969.81;4972360;28;7437;-76
2023/04/28 08:18:15;;;;;;;;;;;;;;;19.13;55.62;99975.03;4979525;28;6934;-75
2023/04/28 08:20:41;;;;;;;;;;;;;;;19.14;55.46;99976.75;4977091;28;7218;-75
2023/04/28 08:23:08;;;;;;;;;;;;;;;19.10;55.84;99969.78;4958079;28;6983;-76
2023/04/28 08:25:34;;;;;;;;;;;;;;;19.06;56.16;99973.25;4976908;28;6781;-75
2023/04/28 08:27:59;;;;;;;;;;;;;;;18.98;56.37;99979.22;4965866;28;7337;-76
2023/04/28 08:30:25;;;;;;;;;;;;;;;18.90;56.49;99975.69;4981705;28;6776;-75
2023/04/28 08:32:51;;;;;;;;;;;;;;;18.84;56.58;99980.84;4974625;28;7119;-75
2023/04/28 08:35:18;;;;;;;;;;;;;;;18.79;56.80;99982.53;4980171;28;8665;-76
2023/04/28 08:37:44;;;;;;;;;;;;;;;18.73;57.28;99983.34;4983423;28;6804;-76
2023/04/28 08:40:10;;;;;;;;;;;;;;;18.69;57.06;99981.63;4975008;28;7267;-76
2023/04/28 08:42:36;;;;;;;;;;;;;;;18.65;57.43;99983.31;4989902;28;7871;-75
2023/04/28 08:45:04;;;;;;;;;;;;;;;18.66;57.95;99985.03;4977938;28;7308;-75
2023/04/28 08:47:37;;;;;;;;;;;;;;;18.62;57.55;99992.78;4958330;28;6978;-75
2023/04/28 08:50:07;;;;;;;;;;;;;;;18.59;57.77;99993.63;4982127;28;7171;-76
2023/04/28 08:52:35;;;;;;;;;;;;;;;18.57;58.36;99991.00;4996080;28;6837;-76
2023/04/28 08:55:09;;;;;;;;;;;;;;;18.56;58.48;99989.28;4975605;28;7444;-76
2023/04/28 08:57:42;;;;;;;;;;;;;;;18.57;58.86;99988.41;4976504;28;6990;-76
2023/04/28 09:00:09;;;;;;;;;;;;;;;18.61;59.07;99991.91;4996062;28;7166;-76
2023/04/28 09:02:36;;;;;;;;;;;;;;;18.65;59.24;99991.09;4997668;28;12806;-76
2023/04/28 09:05:13;;;;;;;;;;;;;;;18.78;59.68;99998.97;4985566;28;6879;-76
2023/04/28 09:07:39;;;;;;;;;;;;;;;18.92;59.70;99992.13;4986292;28;6884;-76
2023/04/28 09:10:22;;;;;;;;;;;;;;;19.12;60.11;99999.22;4977792;28;8096;-76
2023/04/28 09:12:51;;;;;;;;;;;;;;;19.32;60.13;99999.34;4980252;28;6879;-76
2023/04/28 09:15:35;;;;;;;;;;;;;;;19.56;59.58;99992.56;4967775;28;8347;-76
2023/04/28 09:18:06;;;;;;;;;;;;;;;19.74;59.63;99993.47;4973778;28;9235;-76
2023/04/28 09:20:35;;;;;;;;;;;;;;;19.93;59.33;99989.22;4978257;28;7149;-76
2023/04/28 09:23:21;;;;;;;;;;;;;;;20.08;59.04;99993.63;4984775;28;7292;-76
2023/04/28 09:26:05;;;;;;;;;;;;;;;20.19;58.69;99988.47;4964828;28;7071;-76
2023/04/28 09:28:34;;;;;;;;;;;;;;;20.21;58.03;99995.38;4978195;28;7345;-76
2023/04/28 09:31:00;;;;;;;;;;;;;;;20.26;57.93;99995.38;4987170;28;7390;-76
2023/04/28 09:33:26;;;;;;;;;;;;;;;20.28;57.91;99992.78;4994383;28;7534;-76
2023/04/28 09:35:53;;;;;;;;;;;;;;;20.30;57.85;99994.53;4977337;28;7239;-76
2023/04/28 09:38:21;;;;;;;;;;;;;;;20.31;57.66;99995.38;5011171;28;7053;-76
2023/04/28 09:40:57;;;;;;;;;;;;;;;20.31;57.66;99988.47;4975807;28;6868;-76
2023/04/28 09:43:25;;;;;;;;;;;;;;;20.29;57.61;99990.22;4979520;28;7730;-76
2023/04/28 09:45:51;;;;;;;;;;;;;;;20.27;57.55;99986.72;4983617;28;6991;-76
2023/04/28 09:48:17;;;;;;;;;;;;;;;20.23;57.67;99984.97;4993226;28;7909;-76
2023/04/28 09:50:43;;;;;;;;;;;;;;;20.23;57.86;99987.59;4981024;28;6792;-76
2023/04/28 09:53:11;;;;;;;;;;;;;;;20.19;57.84;99991.91;4980661;28;7426;-77
2023/04/28 09:55:44;;;;;;;;;;;;;;;20.17;57.54;99982.34;4987698;28;7030;-76
2023/04/28 09:58:13;;;;;;;;;;;;;;;20.18;57.66;99986.69;4978475;28;7184;-76
2023/04/28 10:00:39;;;;;;;;;;;;;;;20.22;58.26;99985.84;4977055;28;6792;-76
2023/04/28 10:03:08;;;;;;;;;;;;;;;20.33;58.64;99991.94;4981217;28;6854;-73
2023/04/28 10:05:34;;;;;;;;;;;;;;;20.45;58.36;99978.06;4970799;28;11139;-76
2023/04/28 10:08:02;;;;;;;;;;;;;;;20.59;58.38;99982.41;4973349;28;8220;-74
2023/04/28 10:10:28;;;;;;;;;;;;;;;20.76;58.75;99987.59;4974721;28;6888;-73
2023/04/28 10:12:55;;;;;;;;;;;;;;;20.99;58.96;99974.59;4975051;28;7006;-73
2023/04/28 10:15:22;;;;;;;;;;;;;;;21.27;58.76;99969.31;5011783;28;6799;-72
2023/04/28 10:17:49;;;;;;;;;;;;;;;21.54;58.18;99966.63;4995867;28;7011;-72
2023/04/28 10:20:16;;;;;;;;;;;;;;;21.76;57.64;99962.19;4977965;28;6824;-72
2023/04/28 10:22:59;;;;;;;;;;;;;;;21.92;56.84;99973.41;4987404;28;6796;-74
2023/04/28 10:25:35;;;;;;;;;;;;;;;21.91;56.32;99969.94;4982584;28;7173;-74
2023/04/28 10:28:07;;;;;;;;;;;;;;;21.89;56.24;99970.81;4991596;28;7126;-75
2023/04/28 10:30:33;;;;;;;;;;;;;;;21.89;56.18;99976.03;4974229;28;6820;-74
2023/04/28 10:33:14;;;;;;;;;;;;;;;21.88;56.34;99969.97;4976184;28;6885;-73
2023/04/28 10:35:46;;;;;;;;;;;;;;;21.90;56.00;99975.16;4978183;28;6956;-75
2023/04/28 10:38:16;;;;;;;;;;;;;;;21.91;56.40;99964.72;4982411;28;7242;-73
2023/04/28 10:40:47;;;;;;;;;;;;;;;22.01;56.42;99967.28;4992874;28;7010;-75
2023/04/28 10:43:33;;;;;;;;;;;;;;;22.12;55.86;99955.03;4976935;28;7242;-74
2023/04/28 10:46:02;;;;;;;;;;;;;;;22.39;56.91;99949.59;4994575;28;6823;-73
2023/04/28 10:48:28;;;;;;;;;;;;;;;22.83;56.19;99943.16;4962495;28;7051;-75
2023/04/28 10:51:03;;;;;;;;;;;;;;;23.66;56.95;99944.84;4983035;28;6876;-72
2023/04/28 10:53:53;;;;;;;;;;;;;;;24.84;54.83;99942.19;4980013;28;7791;-73
2023/04/28 10:56:23;;;;;;;;;;;;;;;26.09;53.18;99936.13;4982681;28;6804;-73
2023/04/28 10:58:52;;;;;;;;;;;;;;;27.26;50.66;99925.22;5013920;28;6836;-72
2023/04/28 11:01:21;;;;;;;;;;;;;;;27.82;48.55;99926.22;5011651;28;7444;-75
2023/04/28 11:03:46;;;;;;;;;;;;;;;27.81;46.94;99925.34;4991023;28;7130;-72
2023/04/28 11:06:33;;;;;;;;;;;;;;;27.44;46.12;99919.44;5009541;28;7149;-72
2023/04/28 11:09:02;;;;;;;;;;;;;;;27.11;46.65;99927.41;4978446;28;6937;-72
2023/04/28 11:11:30;;;;;;;;;;;;;;;27.16;46.67;99914.97;4982365;28;7069;-71
2023/04/28 11:14:18;;;;;;;;;;;;;;;27.31;46.13;99924.19;4974922;28;6792;-73
2023/04/28 11:16:53;;;;;;;;;;;;;;;27.25;46.10;99920.88;4979084;28;7213;-73
2023/04/28 11:19:26;;;;;;;;;;;;;;;27.06;45.76;99926.66;4989100;28;8446;-72
2023/04/28 11:21:54;;;;;;;;;;;;;;;26.76;45.42;99921.31;4972649;28;6876;-71
2023/04/28 11:24:24;;;;;;;;;;;;;;;26.40;45.58;99918.75;4976854;28;6851;-74
2023/04/28 11:26:51;;;;;;;;;;;;;;;26.05;45.54;99922.19;4988755;28;7236;-73
2023/04/28 11:29:17;;;;;;;;;;;;;;;25.90;45.96;99927.78;4984434;28;7429;-71
2023/04/28 11:31:50;;;;;;;;;;;;;;;25.95;46.62;99922.44;4961850;28;7903;-70
2023/04/28 11:34:21;;;;;;;;;;;;;;;26.50;47.02;99922.84;4967993;28;6984;-70
2023/04/28 11:36:47;;;;;;;;;;;;;;;27.42;46.16;99925.63;4996975;28;6808;-75
2023/04/28 11:39:13;;;;;;;;;;;;;;;28.22;44.32;99911.78;4993593;28;6868;-72
2023/04/28 11:41:44;;;;;;;;;;;;;;;28.46;42.53;99913.66;4975440;28;6780;-74
2023/04/28 11:44:14;;;;;;;;;;;;;;;28.25;42.03;99910.84;4983665;28;8952;-72
2023/04/28 11:47:01;;;;;;;;;;;;;;;27.92;42.84;99911.88;4985854;28;6972;-72
2023/04/28 11:49:29;;;;;;;;;;;;;;;27.71;42.82;99916.91;4980874;28;7366;-72
2023/04/28 11:52:07;;;;;;;;;;;;;;;27.67;42.98;99917.03;4970454;28;7254;-72
2023/04/28 11:54:34;;;;;;;;;;;;;;;27.49;42.31;99916.66;4994908;28;7018;-72
2023/04/28 11:57:03;;;;;;;;;;;;;;;27.26;42.96;99914.72;5001850;28;6784;-71
2023/04/28 11:59:32;;;;;;;;;;;;;;;27.25;42.72;99913.00;4986291;28;6992;-72
2023/04/28 12:02:08;;;;;;;;;;;;;;;27.15;42.32;99917.66;4966633;28;7004;-73
2023/04/28 12:04:35;;;;;;;;;;;;;;;26.93;42.54;99918.25;4994900;28;6990;-73
2023/04/28 12:07:18;;;;;;;;;;;;;;;26.70;42.85;99921.47;4984959;28;6792;-72
2023/04/28 12:10:14;;;;;;;;;;;;;;;26.57;42.51;99920.97;4977520;28;7784;-72
2023/04/28 12:12:41;;;;;;;;;;;;;;;26.60;43.48;99915.59;4980105;28;7210;-72
2023/04/28 12:15:08;;;;;;;;;;;;;;;26.97;42.83;99908.50;4985318;28;6952;-71
2023/04/28 12:17:40;;;;;;;;;;;;;;;27.65;41.96;99906.56;4966122;28;6999;-72
2023/04/28 12:20:10;;;;;;;;;;;;;;;28.35;40.96;99896.44;4996737;28;6792;-72
2023/04/28 12:23:02;;;;;;;;;;;;;;;29.06;39.36;99898.38;4973684;28;6989;-74
2023/04/28 12:25:28;;;;;;;;;;;;;;;29.58;38.59;99891.19;4964327;28;7009;-74
2023/04/28 12:28:06;;;;;;;;;;;;;;;30.22;37.91;99886.84;4978280;28;7809;-72
2023/04/28 12:30:42;;;;;;;;;;;;;;;30.69;36.47;99882.25;4983993;28;6792;-72
2023/04/28 12:33:40;;;;;;;;;;;;;;;30.63;36.06;99888.63;4976304;28;8305;-73
2023/04/28 12:36:06;;;;;;;;;;;;;;;30.11;35.96;99902.31;4971467;28;6888;-72
2023/04/28 12:38:32;;;;;;;;;;;;;;;29.42;36.17;99883.84;4975578;28;7012;-71
2023/04/28 12:40:58;;;;;;;;;;;;;;;28.93;37.19;99895.31;4978364;28;6832;-72
2023/04/28 12:43:27;;;;;;;;;;;;;;;28.91;36.99;99904.19;5002954;28;7213;-72
2023/04/28 12:45:53;;;;;;;;;;;;;;;28.90;36.61;99892.81;5001918;28;7282;-73
2023/04/28 12:48:20;;;;;;;;;;;;;;;29.30;36.50;99889.59;4973479;28;9004;-73
2023/04/28 12:50:45;;;;;;;;;;;;;;;29.93;36.79;99886.25;4982462;28;6780;-73
2023/04/28 12:53:12;;;;;;;;;;;;;;;30.56;35.84;99873.97;4988640;28;6844;-73
2023/04/28 12:55:40;;;;;;;;;;;;;;;31.04;34.56;99874.50;4998354;28;7217;-73